sensor_id;sensor_type;location;lat;lon;timestamp;temperature;humidity
19862;DHT22;10093;48.148;8.542;2023-10-08T00:01:35;8.00;99.90
19862;DHT22;10093;48.148;8.542;2023-10-08T00:04:07;8.00;99.90
19862;DHT22;10093;48.148;8.542;2023-10-08T00:06:33;8.00;99.90
19862;DHT22;10093;48.148;8.542;2023-10-08T00:08:58;8.00;99.90
19862;DHT22;10093;48.148;8.542;2023-10-08T00:11:35;7.90;99.90
19862;DHT22;10093;48.148;8.542;2023-10-08T00:14:02;7.90;99.90
19862;DHT22;10093;48.148;8.542;2023-10-08T00:16:30;7.80;99.90
19862;DHT22;10093;48.148;8.542;2023-10-08T00:18:58;7.70;99.90
19862;DHT22;10093;48.148;8.542;2023-10-08T00:21:28;7.70;99.90
19862;DHT22;10093;48.148;8.542;2023-10-08T00:23:56;7.70;99.90
19862;DHT22;10093;48.148;8.542;2023-10-08T00:26:25;7.70;99.90
19862;DHT22;10093;48.148;8.542;2023-10-08T00:31:24;7.70;99.90
19862;DHT22;10093;48.148;8.542;2023-10-08T00:34:13;7.50;99.90
19862;DHT22;10093;48.148;8.542;2023-10-08T00:36:39;7.40;99.90
19862;DHT22;10093;48.148;8.542;2023-10-08T00:39:07;7.40;99.90
19862;DHT22;10093;48.148;8.542;2023-10-08T00:41:39;7.50;99.90
19862;DHT22;10093;48.148;8.542;2023-10-08T00:44:08;7.60;99.90
19862;DHT22;10093;48.148;8.542;2023-10-08T00:46:33;7.60;99.90
19862;DHT22;10093;48.148;8.542;2023-10-08T00:49:05;7.50;99.90
19862;DHT22;10093;48.148;8.542;2023-10-08T00:51:50;7.50;99.90
19862;DHT22;10093;48.148;8.542;2023-10-08T00:54:34;7.60;99.90
19862;DHT22;10093;48.148;8.542;2023-10-08T00:57:11;7.40;99.90
19862;DHT22;10093;48.148;8.542;2023-10-08T00:59:43;7.40;99.90
19862;DHT22;10093;48.148;8.542;2023-10-08T01:02:15;7.50;99.90
19862;DHT22;10093;48.148;8.542;2023-10-08T01:04:41;7.50;99.90
19862;DHT22;10093;48.148;8.542;2023-10-08T01:07:09;7.30;99.90
19862;DHT22;10093;48.148;8.542;2023-10-08T01:09:38;7.10;99.90
19862;DHT22;10093;48.148;8.542;2023-10-08T01:12:17;7.20;99.90
19862;DHT22;10093;48.148;8.542;2023-10-08T01:15:09;7.30;99.90
19862;DHT22;10093;48.148;8.542;2023-10-08T01:17:54;7.30;99.90
19862;DHT22;10093;48.148;8.542;2023-10-08T01:20:31;7.40;99.90
19862;DHT22;10093;48.148;8.542;2023-10-08T01:25:35;7.30;99.90
19862;DHT22;10093;48.148;8.542;2023-10-08T01:28:01;7.40;99.90
19862;DHT22;10093;48.148;8.542;2023-10-08T01:30:33;7.40;99.90
19862;DHT22;10093;48.148;8.542;2023-10-08T01:33:05;7.20;99.90
19862;DHT22;10093;48.148;8.542;2023-10-08T01:35:34;7.00;99.90
19862;DHT22;10093;48.148;8.542;2023-10-08T01:38:00;7.00;99.90
19862;DHT22;10093;48.148;8.542;2023-10-08T01:40:26;6.80;99.90
19862;DHT22;10093;48.148;8.542;2023-10-08T01:42:52;6.80;99.90
19862;DHT22;10093;48.148;8.542;2023-10-08T01:45:18;7.00;99.90
19862;DHT22;10093;48.148;8.542;2023-10-08T01:47:44;7.00;99.90
19862;DHT22;10093;48.148;8.542;2023-10-08T01:50:10;7.10;99.90
19862;DHT22;10093;48.148;8.542;2023-10-08T01:52:49;7.00;99.90
19862;DHT22;10093;48.148;8.542;2023-10-08T01:55:17;7.10;99.90
19862;DHT22;10093;48.148;8.542;2023-10-08T01:57:46;7.00;99.90
19862;DHT22;10093;48.148;8.542;2023-10-08T02:00:12;6.80;99.90
19862;DHT22;10093;48.148;8.542;2023-10-08T02:02:39;6.70;99.90
19862;DHT22;10093;48.148;8.542;2023-10-08T02:05:06;6.70;99.90
19862;DHT22;10093;48.148;8.542;2023-10-08T02:07:32;6.60;99.90
19862;DHT22;10093;48.148;8.542;2023-10-08T02:09:59;6.70;99.90
19862;DHT22;10093;48.148;8.542;2023-10-08T02:12:24;6.70;99.90
19862;DHT22;10093;48.148;8.542;2023-10-08T02:14:50;6.60;99.90
19862;DHT22;10093;48.148;8.542;2023-10-08T02:17:16;6.70;99.90
19862;DHT22;10093;48.148;8.542;2023-10-08T02:19:42;6.70;99.90
19862;DHT22;10093;48.148;8.542;2023-10-08T02:22:08;6.70;99.90
19862;DHT22;10093;48.148;8.542;2023-10-08T02:24:37;6.60;99.90
19862;DHT22;10093;48.148;8.542;2023-10-08T02:27:02;6.50;99.90
19862;DHT22;10093;48.148;8.542;2023-10-08T02:29:29;6.50;99.90
19862;DHT22;10093;48.148;8.542;2023-10-08T02:31:55;6.30;99.90
19862;DHT22;10093;48.148;8.542;2023-10-08T02:34:21;6.30;99.90
19862;DHT22;10093;48.148;8.542;2023-10-08T02:36:46;6.20;99.90
19862;DHT22;10093;48.148;8.542;2023-10-08T02:39:12;6.20;99.90
19862;DHT22;10093;48.148;8.542;2023-10-08T02:41:51;6.10;99.90
19862;DHT22;10093;48.148;8.542;2023-10-08T02:44:17;6.40;99.90
19862;DHT22;10093;48.148;8.542;2023-10-08T02:46:46;6.50;99.90
19862;DHT22;10093;48.148;8.542;2023-10-08T02:49:15;6.50;99.90
19862;DHT22;10093;48.148;8.542;2023-10-08T02:51:46;6.60;99.90
19862;DHT22;10093;48.148;8.542;2023-10-08T02:54:11;6.70;99.90
19862;DHT22;10093;48.148;8.542;2023-10-08T02:56:47;6.70;99.90
19862;DHT22;10093;48.148;8.542;2023-10-08T02:59:13;6.50;99.90
19862;DHT22;10093;48.148;8.542;2023-10-08T03:01:39;6.50;99.90
19862;DHT22;10093;48.148;8.542;2023-10-08T03:04:08;6.50;99.90
19862;DHT22;10093;48.148;8.542;2023-10-08T03:06:40;6.50;99.90
19862;DHT22;10093;48.148;8.542;2023-10-08T03:09:06;6.50;99.90
19862;DHT22;10093;48.148;8.542;2023-10-08T03:11:33;6.50;99.90
19862;DHT22;10093;48.148;8.542;2023-10-08T03:14:00;6.50;99.90
19862;DHT22;10093;48.148;8.542;2023-10-08T03:16:26;6.50;99.90
19862;DHT22;10093;48.148;8.542;2023-10-08T03:19:00;6.40;99.90
19862;DHT22;10093;48.148;8.542;2023-10-08T03:21:26;6.30;99.90
19862;DHT22;10093;48.148;8.542;2023-10-08T03:24:03;6.20;99.90
19862;DHT22;10093;48.148;8.542;2023-10-08T03:26:37;6.30;99.90
19862;DHT22;10093;48.148;8.542;2023-10-08T03:29:04;6.40;99.90
19862;DHT22;10093;48.148;8.542;2023-10-08T03:31:52;6.40;99.90
19862;DHT22;10093;48.148;8.542;2023-10-08T03:34:20;6.30;99.90
19862;DHT22;10093;48.148;8.542;2023-10-08T03:36:46;6.20;99.90
19862;DHT22;10093;48.148;8.542;2023-10-08T03:39:12;6.30;99.90
19862;DHT22;10093;48.148;8.542;2023-10-08T03:41:39;6.40;99.90
19862;DHT22;10093;48.148;8.542;2023-10-08T03:44:05;6.40;99.90
19862;DHT22;10093;48.148;8.542;2023-10-08T03:46:32;6.50;99.90
19862;DHT22;10093;48.148;8.542;2023-10-08T03:49:07;6.40;99.90
19862;DHT22;10093;48.148;8.542;2023-10-08T03:51:39;6.10;99.90
19862;DHT22;10093;48.148;8.542;2023-10-08T03:54:08;6.00;99.90
19862;DHT22;10093;48.148;8.542;2023-10-08T03:56:39;6.10;99.90
19862;DHT22;10093;48.148;8.542;2023-10-08T03:59:14;6.00;99.90
19862;DHT22;10093;48.148;8.542;2023-10-08T04:02:02;6.00;99.90
19862;DHT22;10093;48.148;8.542;2023-10-08T04:05:01;5.90;99.90
19862;DHT22;10093;48.148;8.542;2023-10-08T04:07:40;5.80;99.90
19862;DHT22;10093;48.148;8.542;2023-10-08T04:10:30;6.00;99.90
19862;DHT22;10093;48.148;8.542;2023-10-08T04:13:01;6.10;99.90
19862;DHT22;10093;48.148;8.542;2023-10-08T04:15:27;6.20;99.90
19862;DHT22;10093;48.148;8.542;2023-10-08T04:17:52;6.20;99.90
19862;DHT22;10093;48.148;8.542;2023-10-08T04:20:18;6.10;99.90
19862;DHT22;10093;48.148;8.542;2023-10-08T04:22:59;6.20;99.90
19862;DHT22;10093;48.148;8.542;2023-10-08T04:25:26;6.30;99.90
19862;DHT22;10093;48.148;8.542;2023-10-08T04:27:56;6.40;99.90
19862;DHT22;10093;48.148;8.542;2023-10-08T04:30:34;6.40;99.90
19862;DHT22;10093;48.148;8.542;2023-10-08T04:33:01;6.10;99.90
19862;DHT22;10093;48.148;8.542;2023-10-08T04:35:33;5.90;99.90
19862;DHT22;10093;48.148;8.542;2023-10-08T04:38:04;5.80;99.90
19862;DHT22;10093;48.148;8.542;2023-10-08T04:40:34;5.90;99.90
19862;DHT22;10093;48.148;8.542;2023-10-08T04:43:07;5.70;99.90
19862;DHT22;10093;48.148;8.542;2023-10-08T04:45:36;5.60;99.90
19862;DHT22;10093;48.148;8.542;2023-10-08T04:48:03;5.60;99.90
19862;DHT22;10093;48.148;8.542;2023-10-08T04:50:34;5.50;99.90
19862;DHT22;10093;48.148;8.542;2023-10-08T04:53:01;5.70;99.90
19862;DHT22;10093;48.148;8.542;2023-10-08T04:55:35;5.90;99.90
19862;DHT22;10093;48.148;8.542;2023-10-08T04:58:07;5.80;99.90
19862;DHT22;10093;48.148;8.542;2023-10-08T05:00:45;5.90;99.90
19862;DHT22;10093;48.148;8.542;2023-10-08T05:03:21;6.00;99.90
19862;DHT22;10093;48.148;8.542;2023-10-08T05:05:57;5.90;99.90
19862;DHT22;10093;48.148;8.542;2023-10-08T05:08:31;5.70;99.90
19862;DHT22;10093;48.148;8.542;2023-10-08T05:11:17;5.50;99.90
19862;DHT22;10093;48.148;8.542;2023-10-08T05:14:11;5.40;99.90
19862;DHT22;10093;48.148;8.542;2023-10-08T05:16:42;5.30;99.90
19862;DHT22;10093;48.148;8.542;2023-10-08T05:19:26;5.20;99.90
19862;DHT22;10093;48.148;8.542;2023-10-08T05:22:13;5.40;99.90
19862;DHT22;10093;48.148;8.542;2023-10-08T05:24:54;5.50;99.90
19862;DHT22;10093;48.148;8.542;2023-10-08T05:27:35;5.70;99.90
19862;DHT22;10093;48.148;8.542;2023-10-08T05:30:34;5.80;99.90
19862;DHT22;10093;48.148;8.542;2023-10-08T05:33:18;5.80;99.90
19862;DHT22;10093;48.148;8.542;2023-10-08T05:35:50;5.60;99.90
19862;DHT22;10093;48.148;8.542;2023-10-08T05:38:22;5.60;99.90
19862;DHT22;10093;48.148;8.542;2023-10-08T05:40:49;5.50;99.90
19862;DHT22;10093;48.148;8.542;2023-10-08T05:43:27;5.40;99.90
19862;DHT22;10093;48.148;8.542;2023-10-08T05:46:05;5.40;99.90
19862;DHT22;10093;48.148;8.542;2023-10-08T05:48:49;5.60;99.90
19862;DHT22;10093;48.148;8.542;2023-10-08T05:59:49;6.00;99.90
19862;DHT22;10093;48.148;8.542;2023-10-08T06:02:20;6.30;99.90
19862;DHT22;10093;48.148;8.542;2023-10-08T06:05:05;6.60;99.90
19862;DHT22;10093;48.148;8.542;2023-10-08T06:07:45;6.80;99.90
19862;DHT22;10093;48.148;8.542;2023-10-08T06:10:14;6.90;99.90
19862;DHT22;10093;48.148;8.542;2023-10-08T06:13:10;7.10;99.90
19862;DHT22;10093;48.148;8.542;2023-10-08T06:15:45;7.60;99.90
19862;DHT22;10093;48.148;8.542;2023-10-08T06:18:14;8.20;99.90
19862;DHT22;10093;48.148;8.542;2023-10-08T06:20:40;8.70;99.90
19862;DHT22;10093;48.148;8.542;2023-10-08T06:23:11;9.40;99.90
19862;DHT22;10093;48.148;8.542;2023-10-08T06:25:39;10.20;99.90
19862;DHT22;10093;48.148;8.542;2023-10-08T06:28:14;11.00;99.90
19862;DHT22;10093;48.148;8.542;2023-10-08T06:30:41;11.80;99.90
19862;DHT22;10093;48.148;8.542;2023-10-08T06:33:09;12.40;99.90
19862;DHT22;10093;48.148;8.542;2023-10-08T06:35:35;12.80;99.90
19862;DHT22;10093;48.148;8.542;2023-10-08T06:38:01;13.40;99.90
19862;DHT22;10093;48.148;8.542;2023-10-08T06:40:33;13.20;99.90
19862;DHT22;10093;48.148;8.542;2023-10-08T06:43:06;13.50;99.90
19862;DHT22;10093;48.148;8.542;2023-10-08T06:45:42;13.60;99.90
19862;DHT22;10093;48.148;8.542;2023-10-08T06:48:09;13.70;99.90
19862;DHT22;10093;48.148;8.542;2023-10-08T06:50:35;13.90;99.90
19862;DHT22;10093;48.148;8.542;2023-10-08T06:53:06;14.40;99.90
19862;DHT22;10093;48.148;8.542;2023-10-08T06:55:33;15.50;99.90
19862;DHT22;10093;48.148;8.542;2023-10-08T06:58:01;16.50;99.90
19862;DHT22;10093;48.148;8.542;2023-10-08T07:00:34;16.80;99.90
19862;DHT22;10093;48.148;8.542;2023-10-08T07:03:06;16.20;99.90
19862;DHT22;10093;48.148;8.542;2023-10-08T07:05:33;15.60;99.90
19862;DHT22;10093;48.148;8.542;2023-10-08T07:08:04;15.30;99.90
19862;DHT22;10093;48.148;8.542;2023-10-08T07:10:35;15.50;99.90
19862;DHT22;10093;48.148;8.542;2023-10-08T07:13:00;16.30;99.90
19862;DHT22;10093;48.148;8.542;2023-10-08T07:15:30;17.20;99.90
19862;DHT22;10093;48.148;8.542;2023-10-08T07:17:56;16.60;99.90
19862;DHT22;10093;48.148;8.542;2023-10-08T07:20:22;16.80;99.90
19862;DHT22;10093;48.148;8.542;2023-10-08T07:22:48;17.60;99.90
19862;DHT22;10093;48.148;8.542;2023-10-08T07:25:20;19.10;99.90
19862;DHT22;10093;48.148;8.542;2023-10-08T07:27:47;20.60;99.90
19862;DHT22;10093;48.148;8.542;2023-10-08T07:30:12;21.90;99.90
19862;DHT22;10093;48.148;8.542;2023-10-08T07:32:41;23.40;99.90
19862;DHT22;10093;48.148;8.542;2023-10-08T07:35:07;24.30;99.90
19862;DHT22;10093;48.148;8.542;2023-10-08T07:37:51;24.60;99.90
19862;DHT22;10093;48.148;8.542;2023-10-08T07:40:19;24.70;99.90
19862;DHT22;10093;48.148;8.542;2023-10-08T07:42:46;25.10;99.90
19862;DHT22;10093;48.148;8.542;2023-10-08T07:45:17;25.70;99.90
19862;DHT22;10093;48.148;8.542;2023-10-08T07:47:43;25.20;99.90
19862;DHT22;10093;48.148;8.542;2023-10-08T07:50:08;25.00;99.90
19862;DHT22;10093;48.148;8.542;2023-10-08T07:52:37;24.00;99.90
19862;DHT22;10093;48.148;8.542;2023-10-08T07:55:02;22.80;99.90
19862;DHT22;10093;48.148;8.542;2023-10-08T07:57:30;21.60;99.90
19862;DHT22;10093;48.148;8.542;2023-10-08T07:59:56;21.00;99.90
19862;DHT22;10093;48.148;8.542;2023-10-08T08:02:26;20.70;99.90
19862;DHT22;10093;48.148;8.542;2023-10-08T08:04:53;20.50;99.90
19862;DHT22;10093;48.148;8.542;2023-10-08T08:07:18;20.80;99.90
19862;DHT22;10093;48.148;8.542;2023-10-08T08:09:49;21.10;99.90
19862;DHT22;10093;48.148;8.542;2023-10-08T08:12:23;21.30;99.90
19862;DHT22;10093;48.148;8.542;2023-10-08T08:14:50;22.20;99.90
19862;DHT22;10093;48.148;8.542;2023-10-08T08:17:22;22.80;99.90
19862;DHT22;10093;48.148;8.542;2023-10-08T08:19:49;23.40;99.90
19862;DHT22;10093;48.148;8.542;2023-10-08T08:22:15;23.80;99.90
19862;DHT22;10093;48.148;8.542;2023-10-08T08:24:50;24.80;99.90
19862;DHT22;10093;48.148;8.542;2023-10-08T08:27:20;24.40;99.90
19862;DHT22;10093;48.148;8.542;2023-10-08T08:29:57;23.30;99.90
19862;DHT22;10093;48.148;8.542;2023-10-08T08:32:35;25.30;99.90
19862;DHT22;10093;48.148;8.542;2023-10-08T08:35:05;26.90;99.90
19862;DHT22;10093;48.148;8.542;2023-10-08T08:37:33;25.10;99.90
19862;DHT22;10093;48.148;8.542;2023-10-08T08:40:04;26.80;99.90
19862;DHT22;10093;48.148;8.542;2023-10-08T08:42:45;26.20;99.90
19862;DHT22;10093;48.148;8.542;2023-10-08T08:45:12;28.50;99.90
19862;DHT22;10093;48.148;8.542;2023-10-08T08:47:38;30.30;99.90
19862;DHT22;10093;48.148;8.542;2023-10-08T08:50:06;31.80;99.90
19862;DHT22;10093;48.148;8.542;2023-10-08T08:52:37;31.10;99.90
19862;DHT22;10093;48.148;8.542;2023-10-08T08:55:03;32.00;99.90
19862;DHT22;10093;48.148;8.542;2023-10-08T08:57:32;32.00;99.90
19862;DHT22;10093;48.148;8.542;2023-10-08T08:59:58;31.60;99.90
19862;DHT22;10093;48.148;8.542;2023-10-08T09:02:24;30.30;99.90
19862;DHT22;10093;48.148;8.542;2023-10-08T09:04:50;30.00;99.90
19862;DHT22;10093;48.148;8.542;2023-10-08T09:07:19;30.10;99.90
19862;DHT22;10093;48.148;8.542;2023-10-08T09:09:46;29.80;99.90
19862;DHT22;10093;48.148;8.542;2023-10-08T09:12:15;27.80;99.90
19862;DHT22;10093;48.148;8.542;2023-10-08T09:14:41;29.20;99.90
19862;DHT22;10093;48.148;8.542;2023-10-08T09:17:07;29.60;99.90
19862;DHT22;10093;48.148;8.542;2023-10-08T09:19:36;30.40;99.90
19862;DHT22;10093;48.148;8.542;2023-10-08T09:22:03;28.80;99.90
19862;DHT22;10093;48.148;8.542;2023-10-08T09:24:33;29.20;99.90
19862;DHT22;10093;48.148;8.542;2023-10-08T09:27:05;27.90;99.90
19862;DHT22;10093;48.148;8.542;2023-10-08T09:29:31;29.30;99.90
19862;DHT22;10093;48.148;8.542;2023-10-08T09:31:57;29.60;99.90
19862;DHT22;10093;48.148;8.542;2023-10-08T09:34:26;30.70;99.90
19862;DHT22;10093;48.148;8.542;2023-10-08T09:39:30;30.40;99.90
19862;DHT22;10093;48.148;8.542;2023-10-08T09:42:02;29.80;99.90
19862;DHT22;10093;48.148;8.542;2023-10-08T09:44:29;31.40;99.90
19862;DHT22;10093;48.148;8.542;2023-10-08T09:47:08;30.10;99.90
19862;DHT22;10093;48.148;8.542;2023-10-08T09:49:46;30.60;99.90
19862;DHT22;10093;48.148;8.542;2023-10-08T09:52:17;31.90;99.30
19862;DHT22;10093;48.148;8.542;2023-10-08T09:55:00;30.30;99.90
19862;DHT22;10093;48.148;8.542;2023-10-08T09:57:29;30.80;99.90
19862;DHT22;10093;48.148;8.542;2023-10-08T09:59:55;30.00;99.90
19862;DHT22;10093;48.148;8.542;2023-10-08T10:02:23;30.40;99.90
19862;DHT22;10093;48.148;8.542;2023-10-08T10:04:54;30.90;98.90
19862;DHT22;10093;48.148;8.542;2023-10-08T10:07:20;30.10;99.90
19862;DHT22;10093;48.148;8.542;2023-10-08T10:09:50;28.80;99.90
19862;DHT22;10093;48.148;8.542;2023-10-08T10:12:25;29.10;99.90
19862;DHT22;10093;48.148;8.542;2023-10-08T10:14:55;28.80;99.90
19862;DHT22;10093;48.148;8.542;2023-10-08T10:17:24;28.00;99.90
19862;DHT22;10093;48.148;8.542;2023-10-08T10:19:56;27.00;99.90
19862;DHT22;10093;48.148;8.542;2023-10-08T10:22:32;28.30;99.90
19862;DHT22;10093;48.148;8.542;2023-10-08T10:24:58;30.20;99.90
19862;DHT22;10093;48.148;8.542;2023-10-08T10:27:25;30.80;99.90
19862;DHT22;10093;48.148;8.542;2023-10-08T10:30:01;31.50;97.40
19862;DHT22;10093;48.148;8.542;2023-10-08T10:32:29;32.00;97.60
19862;DHT22;10093;48.148;8.542;2023-10-08T10:34:55;32.80;97.20
19862;DHT22;10093;48.148;8.542;2023-10-08T10:37:20;32.70;97.80
19862;DHT22;10093;48.148;8.542;2023-10-08T10:39:55;33.90;97.50
19862;DHT22;10093;48.148;8.542;2023-10-08T10:42:22;35.00;95.40
19862;DHT22;10093;48.148;8.542;2023-10-08T10:44:49;35.40;94.00
19862;DHT22;10093;48.148;8.542;2023-10-08T10:47:15;35.20;94.80
19862;DHT22;10093;48.148;8.542;2023-10-08T10:49:42;34.80;94.90
19862;DHT22;10093;48.148;8.542;2023-10-08T10:52:40;35.00;94.10
19862;DHT22;10093;48.148;8.542;2023-10-08T10:55:18;33.80;93.80
19862;DHT22;10093;48.148;8.542;2023-10-08T10:57:56;33.30;95.10
19862;DHT22;10093;48.148;8.542;2023-10-08T11:00:31;32.60;94.20
19862;DHT22;10093;48.148;8.542;2023-10-08T11:02:57;32.70;94.60
19862;DHT22;10093;48.148;8.542;2023-10-08T11:05:31;32.00;94.90
19862;DHT22;10093;48.148;8.542;2023-10-08T11:07:59;32.40;93.90
19862;DHT22;10093;48.148;8.542;2023-10-08T11:12:58;32.60;94.00
19862;DHT22;10093;48.148;8.542;2023-10-08T11:15:29;32.70;93.20
19862;DHT22;10093;48.148;8.542;2023-10-08T11:18:10;31.90;92.80
19862;DHT22;10093;48.148;8.542;2023-10-08T11:20:36;31.80;93.60
19862;DHT22;10093;48.148;8.542;2023-10-08T11:23:06;31.80;94.10
19862;DHT22;10093;48.148;8.542;2023-10-08T11:25:55;32.10;92.70
19862;DHT22;10093;48.148;8.542;2023-10-08T11:28:21;31.30;93.10
19862;DHT22;10093;48.148;8.542;2023-10-08T11:30:48;31.40;94.20
19862;DHT22;10093;48.148;8.542;2023-10-08T11:33:17;31.30;93.40
19862;DHT22;10093;48.148;8.542;2023-10-08T11:36:00;31.50;92.40
19862;DHT22;10093;48.148;8.542;2023-10-08T11:38:26;31.50;93.10
19862;DHT22;10093;48.148;8.542;2023-10-08T11:40:53;31.40;92.90
19862;DHT22;10093;48.148;8.542;2023-10-08T11:43:23;31.10;92.70
19862;DHT22;10093;48.148;8.542;2023-10-08T11:45:48;30.80;93.10
19862;DHT22;10093;48.148;8.542;2023-10-08T11:48:15;31.30;93.40
19862;DHT22;10093;48.148;8.542;2023-10-08T11:50:47;31.40;93.10
19862;DHT22;10093;48.148;8.542;2023-10-08T11:53:16;30.80;92.80
19862;DHT22;10093;48.148;8.542;2023-10-08T11:55:42;30.40;95.30
19862;DHT22;10093;48.148;8.542;2023-10-08T11:58:10;29.60;93.60
19862;DHT22;10093;48.148;8.542;2023-10-08T12:00:39;29.20;94.20
19862;DHT22;10093;48.148;8.542;2023-10-08T12:03:11;29.10;93.90
19862;DHT22;10093;48.148;8.542;2023-10-08T12:05:37;29.40;95.50
19862;DHT22;10093;48.148;8.542;2023-10-08T12:08:09;29.40;93.30
19862;DHT22;10093;48.148;8.542;2023-10-08T12:10:38;29.80;94.80
19862;DHT22;10093;48.148;8.542;2023-10-08T12:13:04;30.20;94.70
19862;DHT22;10093;48.148;8.542;2023-10-08T12:15:31;30.40;95.00
19862;DHT22;10093;48.148;8.542;2023-10-08T12:18:04;30.80;93.10
19862;DHT22;10093;48.148;8.542;2023-10-08T12:20:49;30.80;93.00
19862;DHT22;10093;48.148;8.542;2023-10-08T12:23:14;30.50;92.90
19862;DHT22;10093;48.148;8.542;2023-10-08T12:25:55;30.10;93.40
19862;DHT22;10093;48.148;8.542;2023-10-08T12:28:22;30.20;93.10
19862;DHT22;10093;48.148;8.542;2023-10-08T12:30:50;30.10;92.70
19862;DHT22;10093;48.148;8.542;2023-10-08T12:33:21;29.90;93.00
19862;DHT22;10093;48.148;8.542;2023-10-08T12:35:50;29.50;92.80
19862;DHT22;10093;48.148;8.542;2023-10-08T12:38:19;29.20;93.40
19862;DHT22;10093;48.148;8.542;2023-10-08T12:40:48;29.00;94.10
19862;DHT22;10093;48.148;8.542;2023-10-08T12:43:18;29.90;93.90
19862;DHT22;10093;48.148;8.542;2023-10-08T12:45:54;30.70;92.70
19862;DHT22;10093;48.148;8.542;2023-10-08T12:48:25;31.00;93.80
19862;DHT22;10093;48.148;8.542;2023-10-08T12:50:52;31.20;92.90
19862;DHT22;10093;48.148;8.542;2023-10-08T12:53:27;31.00;92.40
19862;DHT22;10093;48.148;8.542;2023-10-08T12:56:00;31.00;92.80
19862;DHT22;10093;48.148;8.542;2023-10-08T12:58:31;30.60;92.90
19862;DHT22;10093;48.148;8.542;2023-10-08T13:01:00;31.30;92.80
19862;DHT22;10093;48.148;8.542;2023-10-08T13:03:29;31.50;94.30
19862;DHT22;10093;48.148;8.542;2023-10-08T13:05:59;32.00;92.20
19862;DHT22;10093;48.148;8.542;2023-10-08T13:08:32;32.10;92.10
19862;DHT22;10093;48.148;8.542;2023-10-08T13:11:01;32.00;92.90
19862;DHT22;10093;48.148;8.542;2023-10-08T13:13:30;32.50;93.00
19862;DHT22;10093;48.148;8.542;2023-10-08T13:15:56;32.80;92.90
19862;DHT22;10093;48.148;8.542;2023-10-08T13:18:23;33.00;92.20
19862;DHT22;10093;48.148;8.542;2023-10-08T13:20:52;33.00;91.40
19862;DHT22;10093;48.148;8.542;2023-10-08T13:23:18;33.40;91.50
19862;DHT22;10093;48.148;8.542;2023-10-08T13:25:46;32.60;91.70
19862;DHT22;10093;48.148;8.542;2023-10-08T13:28:22;31.90;91.70
19862;DHT22;10093;48.148;8.542;2023-10-08T13:30:53;31.80;92.70
19862;DHT22;10093;48.148;8.542;2023-10-08T13:33:23;31.70;93.50
19862;DHT22;10093;48.148;8.542;2023-10-08T13:35:50;31.10;92.60
19862;DHT22;10093;48.148;8.542;2023-10-08T13:38:19;31.60;92.20
19862;DHT22;10093;48.148;8.542;2023-10-08T13:40:48;31.70;92.20
19862;DHT22;10093;48.148;8.542;2023-10-08T13:43:33;31.90;91.30
19862;DHT22;10093;48.148;8.542;2023-10-08T13:46:04;32.30;92.10
19862;DHT22;10093;48.148;8.542;2023-10-08T13:48:34;31.70;92.60
19862;DHT22;10093;48.148;8.542;2023-10-08T13:51:01;31.60;92.10
19862;DHT22;10093;48.148;8.542;2023-10-08T13:53:32;31.40;93.70
19862;DHT22;10093;48.148;8.542;2023-10-08T13:55:59;31.50;93.40
19862;DHT22;10093;48.148;8.542;2023-10-08T13:58:27;31.50;93.60
19862;DHT22;10093;48.148;8.542;2023-10-08T14:00:58;32.30;91.70
19862;DHT22;10093;48.148;8.542;2023-10-08T14:03:29;32.90;91.70
19862;DHT22;10093;48.148;8.542;2023-10-08T14:05:59;32.50;91.10
19862;DHT22;10093;48.148;8.542;2023-10-08T14:08:30;31.50;92.40
19862;DHT22;10093;48.148;8.542;2023-10-08T14:10:57;30.60;91.50
19862;DHT22;10093;48.148;8.542;2023-10-08T14:13:32;30.10;92.60
19862;DHT22;10093;48.148;8.542;2023-10-08T14:15:58;29.80;93.80
19862;DHT22;10093;48.148;8.542;2023-10-08T14:18:24;29.90;93.00
19862;DHT22;10093;48.148;8.542;2023-10-08T14:20:54;29.90;93.10
19862;DHT22;10093;48.148;8.542;2023-10-08T14:23:21;29.80;94.50
19862;DHT22;10093;48.148;8.542;2023-10-08T14:25:49;30.00;93.60
19862;DHT22;10093;48.148;8.542;2023-10-08T14:28:20;30.10;92.90
19862;DHT22;10093;48.148;8.542;2023-10-08T14:31:07;30.10;93.90
19862;DHT22;10093;48.148;8.542;2023-10-08T14:33:33;29.90;92.90
19862;DHT22;10093;48.148;8.542;2023-10-08T14:36:08;30.50;93.50
19862;DHT22;10093;48.148;8.542;2023-10-08T14:38:52;29.80;92.80
19862;DHT22;10093;48.148;8.542;2023-10-08T14:41:36;30.20;93.70
19862;DHT22;10093;48.148;8.542;2023-10-08T14:44:20;30.00;94.20
19862;DHT22;10093;48.148;8.542;2023-10-08T14:46:46;30.00;92.90
19862;DHT22;10093;48.148;8.542;2023-10-08T14:49:12;29.90;93.70
19862;DHT22;10093;48.148;8.542;2023-10-08T14:51:38;29.90;93.70
19862;DHT22;10093;48.148;8.542;2023-10-08T14:54:06;30.00;93.10
19862;DHT22;10093;48.148;8.542;2023-10-08T14:56:34;30.00;93.80
19862;DHT22;10093;48.148;8.542;2023-10-08T14:59:00;30.20;94.10
19862;DHT22;10093;48.148;8.542;2023-10-08T15:01:27;30.50;94.40
19862;DHT22;10093;48.148;8.542;2023-10-08T15:03:53;30.40;93.30
19862;DHT22;10093;48.148;8.542;2023-10-08T15:06:19;30.10;93.80
19862;DHT22;10093;48.148;8.542;2023-10-08T15:08:46;29.80;93.10
19862;DHT22;10093;48.148;8.542;2023-10-08T15:11:12;29.40;94.10
19862;DHT22;10093;48.148;8.542;2023-10-08T15:13:37;29.50;94.10
19862;DHT22;10093;48.148;8.542;2023-10-08T15:16:11;29.20;95.10
19862;DHT22;10093;48.148;8.542;2023-10-08T15:18:37;29.20;95.20
19862;DHT22;10093;48.148;8.542;2023-10-08T15:21:08;28.80;95.70
19862;DHT22;10093;48.148;8.542;2023-10-08T15:23:34;28.30;95.60
19862;DHT22;10093;48.148;8.542;2023-10-08T15:26:01;28.30;94.60
19862;DHT22;10093;48.148;8.542;2023-10-08T15:28:26;28.20;94.20
19862;DHT22;10093;48.148;8.542;2023-10-08T15:30:52;27.70;96.00
19862;DHT22;10093;48.148;8.542;2023-10-08T15:33:18;26.90;96.20
19862;DHT22;10093;48.148;8.542;2023-10-08T15:35:43;26.40;97.10
19862;DHT22;10093;48.148;8.542;2023-10-08T15:38:09;26.00;97.60
19862;DHT22;10093;48.148;8.542;2023-10-08T15:40:34;25.60;99.10
19862;DHT22;10093;48.148;8.542;2023-10-08T15:43:00;25.50;98.90
19862;DHT22;10093;48.148;8.542;2023-10-08T15:45:26;25.30;98.80
19862;DHT22;10093;48.148;8.542;2023-10-08T15:47:52;25.10;98.90
19862;DHT22;10093;48.148;8.542;2023-10-08T15:50:18;25.00;99.90
19862;DHT22;10093;48.148;8.542;2023-10-08T15:52:49;24.80;99.80
19862;DHT22;10093;48.148;8.542;2023-10-08T15:55:15;24.40;99.90
19862;DHT22;10093;48.148;8.542;2023-10-08T15:57:41;24.00;99.90
19862;DHT22;10093;48.148;8.542;2023-10-08T16:00:07;23.70;99.90
19862;DHT22;10093;48.148;8.542;2023-10-08T16:02:34;23.20;99.90
19862;DHT22;10093;48.148;8.542;2023-10-08T16:04:59;22.90;99.90
19862;DHT22;10093;48.148;8.542;2023-10-08T16:07:25;22.40;99.90
19862;DHT22;10093;48.148;8.542;2023-10-08T16:09:51;22.00;99.90
19862;DHT22;10093;48.148;8.542;2023-10-08T16:12:17;21.80;99.90
19862;DHT22;10093;48.148;8.542;2023-10-08T16:14:43;21.60;99.90
19862;DHT22;10093;48.148;8.542;2023-10-08T16:17:10;21.60;99.90